createdAt,value
2023-03-06T00:00:23.278Z,148.67
2023-03-06T00:00:59.055Z,149.33
2023-03-06T00:01:31.368Z,150.00
2023-03-06T00:02:03.847Z,151.33
2023-03-06T00:02:36.148Z,152.00
2023-03-06T00:03:09.074Z,152.67
2023-03-06T00:03:41.392Z,152.00
2023-03-06T00:04:13.799Z,149.67
2023-03-06T00:04:46.131Z,141.67
2023-03-06T00:05:18.758Z,134.67
2023-03-06T00:05:51.128Z,130.33
2023-03-06T00:06:23.421Z,119.00
2023-03-06T00:06:55.763Z,114.33
2023-03-06T00:07:28.041Z,117.67
2023-03-06T00:08:00.339Z,125.00
2023-03-06T00:08:32.627Z,126.67
2023-03-06T00:09:04.933Z,125.67
2023-03-06T00:09:37.252Z,124.67
2023-03-06T00:10:15.475Z,124.00
2023-03-06T00:10:47.875Z,122.67
2023-03-06T00:11:21.032Z,119.67
2023-03-06T00:11:53.316Z,112.33
2023-03-06T00:12:27.619Z,107.33
2023-03-06T00:13:06.030Z,107.67
2023-03-06T00:13:38.634Z,109.33
2023-03-06T00:14:10.970Z,109.33
2023-03-06T00:14:43.350Z,108.00
2023-03-06T00:15:15.729Z,109.33
2023-03-06T00:15:49.007Z,108.67
2023-03-06T00:16:21.389Z,108.67
2023-03-06T00:16:56.928Z,111.33
2023-03-06T00:17:29.241Z,112.67
2023-03-06T00:18:04.550Z,114.00
2023-03-06T00:18:36.937Z,116.67
2023-03-06T00:19:09.316Z,125.67
2023-03-06T00:19:41.669Z,130.00
2023-03-06T00:20:15.550Z,129.00
2023-03-06T00:20:47.825Z,129.00
2023-03-06T00:21:20.221Z,129.00
2023-03-06T00:21:52.490Z,135.00
2023-03-06T00:22:24.757Z,160.33
2023-03-06T00:22:57.660Z,178.00
2023-03-06T00:23:30.118Z,188.33
2023-03-06T00:24:02.435Z,178.33
2023-03-06T00:24:34.721Z,155.67
2023-03-06T00:25:08.388Z,155.67
2023-03-06T00:25:45.205Z,171.00
2023-03-06T00:26:17.472Z,178.00
2023-03-06T00:26:49.778Z,183.67
2023-03-06T00:27:22.143Z,177.67
2023-03-06T00:27:54.396Z,173.67
2023-03-06T00:28:27.228Z,170.67
2023-03-06T00:28:59.601Z,170.33
2023-03-06T00:29:32.016Z,167.33
2023-03-06T00:30:05.746Z,165.67
2023-03-06T00:30:38.212Z,164.67
2023-03-06T00:31:10.520Z,163.67
2023-03-06T00:31:46.357Z,165.67
2023-03-06T00:32:18.720Z,175.67
2023-03-06T00:32:53.220Z,179.67
2023-03-06T00:33:25.566Z,183.00
2023-03-06T00:33:57.857Z,187.33
2023-03-06T00:34:30.147Z,195.00
2023-03-06T00:35:02.439Z,198.33
2023-03-06T00:35:34.747Z,195.33
2023-03-06T00:36:07.510Z,189.67
2023-03-06T00:36:39.841Z,187.00
2023-03-06T00:37:12.106Z,185.33
2023-03-06T00:37:44.941Z,183.33
2023-03-06T00:38:17.348Z,183.00
2023-03-06T00:38:49.635Z,182.67
2023-03-06T00:39:22.206Z,182.00
2023-03-06T00:39:54.550Z,185.00
2023-03-06T00:40:27.285Z,186.00
2023-03-06T00:40:59.876Z,187.00
2023-03-06T00:41:32.176Z,189.67
2023-03-06T00:42:04.660Z,187.67
2023-03-06T00:42:36.994Z,186.67
2023-03-06T00:43:09.503Z,185.67
2023-03-06T00:43:41.885Z,185.00
2023-03-06T00:44:14.136Z,185.00
2023-03-06T00:44:46.510Z,184.00
2023-03-06T00:45:18.894Z,184.00
2023-03-06T00:45:51.483Z,182.33
2023-03-06T00:46:23.819Z,176.00
2023-03-06T00:46:56.111Z,167.33
2023-03-06T00:47:28.489Z,152.00
2023-03-06T00:48:00.806Z,147.33
2023-03-06T00:48:33.658Z,147.00
2023-03-06T00:49:05.942Z,148.33
2023-03-06T00:49:38.364Z,145.33
2023-03-06T00:50:11.500Z,135.33
2023-03-06T00:50:43.849Z,126.00
2023-03-06T00:51:17.313Z,123.33
2023-03-06T00:51:49.611Z,122.00
2023-03-06T00:52:21.995Z,119.33
2023-03-06T00:52:54.310Z,113.33
2023-03-06T00:53:26.641Z,107.33
2023-03-06T00:53:59.022Z,105.67
2023-03-06T00:54:31.347Z,107.00
2023-03-06T00:55:04.254Z,105.00
2023-03-06T00:55:36.598Z,93.67
2023-03-06T00:56:09.219Z,88.33
2023-03-06T00:56:41.555Z,91.00
2023-03-06T00:57:13.815Z,96.67
2023-03-06T00:57:46.118Z,101.00
2023-03-06T00:58:18.548Z,107.00
2023-03-06T00:58:50.888Z,111.33
2023-03-06T00:59:23.194Z,105.67
2023-03-06T00:59:55.503Z,104.00
2023-03-06T01:00:27.773Z,106.00
2023-03-06T01:01:00.033Z,109.67
2023-03-06T01:01:32.401Z,110.00
2023-03-06T01:02:05.099Z,108.00
2023-03-06T01:02:37.444Z,102.00
2023-03-06T01:03:09.827Z,99.00
2023-03-06T01:03:42.105Z,96.00
2023-03-06T01:04:14.672Z,96.33
2023-03-06T01:04:47.013Z,99.33
2023-03-06T01:05:19.431Z,100.00
2023-03-06T01:05:51.686Z,98.33
2023-03-06T01:06:24.331Z,98.67
2023-03-06T01:06:56.670Z,100.00
2023-03-06T01:07:29.833Z,99.67
2023-03-06T01:08:02.224Z,98.00
2023-03-06T01:08:34.654Z,94.00
2023-03-06T01:09:06.954Z,92.67
2023-03-06T01:09:39.273Z,95.33
2023-03-06T01:10:12.049Z,96.67
2023-03-06T01:10:44.314Z,97.33
2023-03-06T01:11:16.682Z,98.67
2023-03-06T01:11:48.943Z,99.00
2023-03-06T01:12:23.311Z,98.00
2023-03-06T01:12:55.922Z,90.67
2023-03-06T01:13:28.269Z,83.33
2023-03-06T01:14:00.852Z,83.67
2023-03-06T01:14:33.441Z,86.00
2023-03-06T01:15:07.075Z,85.00
2023-03-06T01:15:40.086Z,83.33
2023-03-06T01:16:15.540Z,85.67
2023-03-06T01:16:48.068Z,86.33
2023-03-06T01:17:20.359Z,86.33
2023-03-06T01:17:54.576Z,88.33
2023-03-06T01:18:26.885Z,97.33
2023-03-06T01:18:59.457Z,115.00
2023-03-06T01:19:31.730Z,132.67
2023-03-06T01:20:05.150Z,153.67
2023-03-06T01:20:37.802Z,161.67
2023-03-06T01:21:10.114Z,169.67
2023-03-06T01:21:42.443Z,157.00
2023-03-06T01:22:14.696Z,139.33
2023-03-06T01:22:46.965Z,131.33
2023-03-06T01:23:19.220Z,124.33
2023-03-06T01:23:51.579Z,107.33
2023-03-06T01:24:25.763Z,100.33
2023-03-06T01:24:58.126Z,102.00
2023-03-06T01:25:30.486Z,103.67
2023-03-06T01:26:02.986Z,106.33
2023-03-06T01:26:35.359Z,116.67
2023-03-06T01:27:07.674Z,131.67
2023-03-06T01:27:39.984Z,133.33
2023-03-06T01:28:12.244Z,129.67
2023-03-06T01:28:44.555Z,128.33
2023-03-06T01:29:16.863Z,128.00
2023-03-06T01:29:49.269Z,128.67
2023-03-06T01:30:21.585Z,129.00
2023-03-06T01:30:54.764Z,128.33
2023-03-06T01:31:27.227Z,126.67
2023-03-06T01:31:59.653Z,125.33
2023-03-06T01:32:32.847Z,123.00
2023-03-06T01:33:05.125Z,122.00
2023-03-06T01:33:37.823Z,122.33
2023-03-06T01:34:10.124Z,125.33
2023-03-06T01:34:42.465Z,129.00
2023-03-06T01:35:15.245Z,130.00
2023-03-06T01:35:47.830Z,129.33
2023-03-06T01:36:20.227Z,129.00
2023-03-06T01:36:52.482Z,129.00
2023-03-06T01:37:24.767Z,129.00
2023-03-06T01:37:57.084Z,129.00
2023-03-06T01:38:29.746Z,128.67
2023-03-06T01:39:02.122Z,128.67
2023-03-06T01:39:34.431Z,129.00
2023-03-06T01:40:08.848Z,129.00
2023-03-06T01:40:41.112Z,128.00
2023-03-06T01:41:15.874Z,126.33
2023-03-06T01:41:48.225Z,124.00
2023-03-06T01:42:20.663Z,122.33
2023-03-06T01:42:52.956Z,121.33
2023-03-06T01:43:28.083Z,121.00
2023-03-06T01:44:00.534Z,121.33
2023-03-06T01:44:33.151Z,123.33
2023-03-06T01:45:27.621Z,129.00
2023-03-06T01:46:24.571Z,137.00
2023-03-06T01:46:56.937Z,135.67
2023-03-06T01:47:29.347Z,135.00
2023-03-06T01:48:01.644Z,134.00
2023-03-06T01:48:34.089Z,134.00
2023-03-06T01:49:13.199Z,134.33
2023-03-06T01:49:45.570Z,137.00
2023-03-06T01:50:17.988Z,135.67
2023-03-06T01:50:52.840Z,123.67
2023-03-06T01:51:30.523Z,104.00
2023-03-06T01:52:16.997Z,104.00
2023-03-06T01:52:57.188Z,110.00
2023-03-06T01:53:29.794Z,111.00
2023-03-06T01:54:08.711Z,108.67
2023-03-06T01:54:46.645Z,104.67
2023-03-06T01:55:39.388Z,99.00
2023-03-06T01:56:14.212Z,95.67
2023-03-06T01:56:51.294Z,87.33
2023-03-06T01:57:26.199Z,88.00
2023-03-06T01:58:02.842Z,87.67
2023-03-06T01:58:35.288Z,92.00
2023-03-06T01:59:07.817Z,95.67
2023-03-06T01:59:42.731Z,95.67
2023-03-06T02:00:18.539Z,93.00
2023-03-06T02:00:50.829Z,94.00
2023-03-06T02:01:23.410Z,95.00
2023-03-06T02:01:59.005Z,96.00
2023-03-06T02:02:31.377Z,96.67
2023-03-06T02:03:14.614Z,97.33
2023-03-06T02:03:49.920Z,98.33
2023-03-06T02:04:22.536Z,99.00
2023-03-06T02:04:54.808Z,99.33
2023-03-06T02:05:27.190Z,100.67
2023-03-06T02:05:59.655Z,102.33
2023-03-06T02:06:36.527Z,104.00
2023-03-06T02:07:10.415Z,108.00
2023-03-06T02:07:44.355Z,122.33
2023-03-06T02:08:20.064Z,117.33
2023-03-06T02:08:52.901Z,113.00
2023-03-06T02:09:29.861Z,110.33
2023-03-06T02:10:02.190Z,109.33
2023-03-06T02:10:34.775Z,107.33
2023-03-06T02:11:20.864Z,105.00
2023-03-06T02:11:53.134Z,123.33
2023-03-06T02:12:26.434Z,153.67
2023-03-06T02:12:58.899Z,181.67
2023-03-06T02:13:31.393Z,201.33
2023-03-06T02:14:04.103Z,185.00
2023-03-06T02:14:38.248Z,203.00
2023-03-06T02:15:12.892Z,221.33
2023-03-06T02:15:45.192Z,230.67
2023-03-06T02:16:21.404Z,234.33
2023-03-06T02:16:53.912Z,196.67
2023-03-06T02:17:27.652Z,195.33
2023-03-06T02:18:00.280Z,198.33
2023-03-06T02:18:34.079Z,205.67
2023-03-06T02:19:13.801Z,198.67
2023-03-06T02:20:12.008Z,188.33
2023-03-06T02:20:50.359Z,200.67
2023-03-06T02:21:30.702Z,204.33
2023-03-06T02:22:03.459Z,207.33
2023-03-06T02:22:54.356Z,200.00
2023-03-06T02:23:31.734Z,191.33
2023-03-06T02:24:06.983Z,184.67
2023-03-06T02:24:49.977Z,180.33
2023-03-06T02:25:31.571Z,186.00
2023-03-06T02:26:05.478Z,190.67
2023-03-06T02:26:39.277Z,190.00
2023-03-06T02:27:14.314Z,188.33
2023-03-06T02:27:47.966Z,186.33
2023-03-06T02:28:23.542Z,162.33
2023-03-06T02:28:58.432Z,130.33
2023-03-06T02:29:30.939Z,111.67
2023-03-06T02:30:08.753Z,94.33
2023-03-06T02:30:42.747Z,96.33
2023-03-06T02:31:25.202Z,104.00
2023-03-06T02:31:58.081Z,110.00
2023-03-06T02:32:30.385Z,110.67
2023-03-06T02:33:03.439Z,104.33
2023-03-06T02:33:35.764Z,107.33
2023-03-06T02:34:13.848Z,115.67
2023-03-06T02:34:50.792Z,127.67
2023-03-06T02:35:25.905Z,134.00
2023-03-06T02:36:04.529Z,148.33
2023-03-06T02:36:43.159Z,155.67
2023-03-06T02:37:15.436Z,153.33
2023-03-06T02:37:47.819Z,153.00
2023-03-06T02:38:24.078Z,153.00
2023-03-06T02:38:58.108Z,154.00
2023-03-06T02:39:34.112Z,154.33
2023-03-06T02:40:12.377Z,147.00
2023-03-06T02:40:48.721Z,128.00
2023-03-06T02:41:21.019Z,119.00
2023-03-06T02:41:53.406Z,117.33
2023-03-06T02:42:28.966Z,116.67
2023-03-06T02:43:01.712Z,119.00
2023-03-06T02:43:38.457Z,119.67
2023-03-06T02:44:10.764Z,124.00
2023-03-06T02:44:43.098Z,132.00
2023-03-06T02:45:22.097Z,143.67
2023-03-06T02:45:54.436Z,144.00
2023-03-06T02:46:26.769Z,144.00
2023-03-06T02:46:59.073Z,145.00
2023-03-06T02:47:31.936Z,156.00
2023-03-06T02:48:04.429Z,151.33
2023-03-06T02:48:36.736Z,117.67
2023-03-06T02:49:09.030Z,85.33
2023-03-06T02:49:41.320Z,73.00
2023-03-06T02:50:13.804Z,66.67
2023-03-06T02:50:47.404Z,68.00
2023-03-06T02:51:19.714Z,82.33
2023-03-06T02:51:52.039Z,98.00
2023-03-06T02:52:24.562Z,105.00
2023-03-06T02:52:56.843Z,108.00
2023-03-06T02:53:29.291Z,112.33
2023-03-06T02:54:01.621Z,122.00
2023-03-06T02:54:33.906Z,139.67
2023-03-06T02:55:06.717Z,145.33
2023-03-06T02:55:39.300Z,146.67
2023-03-06T02:56:11.590Z,144.00
2023-03-06T02:56:45.044Z,151.67
2023-03-06T02:57:17.321Z,151.00
2023-03-06T02:57:49.640Z,137.00
2023-03-06T02:58:21.972Z,120.33
2023-03-06T02:58:54.232Z,135.00
2023-03-06T02:59:26.554Z,199.33
2023-03-06T02:59:59.550Z,248.67
2023-03-06T03:00:32.649Z,264.67
2023-03-06T03:01:05.679Z,215.67
2023-03-06T03:01:38.121Z,172.00
2023-03-06T03:02:10.719Z,173.00
2023-03-06T03:02:44.074Z,181.33
2023-03-06T03:03:17.140Z,187.00
2023-03-06T03:03:49.404Z,182.67
2023-03-06T03:04:21.747Z,175.33
2023-03-06T03:04:54.070Z,168.33
2023-03-06T03:05:26.334Z,158.67
2023-03-06T03:05:59.963Z,142.33
2023-03-06T03:06:32.258Z,125.33
2023-03-06T03:07:04.580Z,113.33
2023-03-06T03:07:36.876Z,123.67
2023-03-06T03:08:09.176Z,133.33
2023-03-06T03:08:41.419Z,137.33
2023-03-06T03:09:14.106Z,152.00
2023-03-06T03:09:46.514Z,170.67
2023-03-06T03:10:18.934Z,180.67
2023-03-06T03:10:51.371Z,192.00
2023-03-06T03:11:23.662Z,233.33
2023-03-06T03:11:56.010Z,288.00
2023-03-06T03:12:28.741Z,316.00
2023-03-06T03:13:01.030Z,320.67
2023-03-06T03:13:33.341Z,315.33
2023-03-06T03:14:05.627Z,319.00
2023-03-06T03:14:38.012Z,320.67
2023-03-06T03:15:10.795Z,315.33
2023-03-06T03:15:43.250Z,308.33
2023-03-06T03:16:15.790Z,302.67
2023-03-06T03:16:48.112Z,291.67
2023-03-06T03:17:20.433Z,283.67
2023-03-06T03:17:52.775Z,273.67
2023-03-06T03:18:25.152Z,270.33
2023-03-06T03:18:57.458Z,268.00
2023-03-06T03:19:30.075Z,258.33
2023-03-06T03:20:02.592Z,254.67
2023-03-06T03:20:34.892Z,236.67
2023-03-06T03:21:11.523Z,203.67
2023-03-06T03:21:43.802Z,176.00
2023-03-06T03:22:16.862Z,165.33
2023-03-06T03:22:51.367Z,157.67
2023-03-06T03:23:24.423Z,155.00
2023-03-06T03:23:56.861Z,158.00
2023-03-06T03:24:29.195Z,159.33
2023-03-06T03:25:01.512Z,156.33
2023-03-06T03:25:33.807Z,155.00
2023-03-06T03:26:18.610Z,150.33
2023-03-06T03:26:50.942Z,152.33
2023-03-06T03:27:23.279Z,151.00
2023-03-06T03:27:55.589Z,149.33
2023-03-06T03:28:27.849Z,150.67
2023-03-06T03:29:00.156Z,151.67
2023-03-06T03:29:33.436Z,149.00
2023-03-06T03:30:06.240Z,148.67
2023-03-06T03:30:40.492Z,150.67
2023-03-06T03:31:13.256Z,155.00
2023-03-06T03:31:45.585Z,161.00
2023-03-06T03:32:17.958Z,164.67
2023-03-06T03:32:50.436Z,169.00
2023-03-06T03:33:22.702Z,186.00
2023-03-06T03:33:55.036Z,189.00
2023-03-06T03:34:27.642Z,187.67
2023-03-06T03:34:59.989Z,185.67
2023-03-06T03:35:32.485Z,183.00
2023-03-06T03:36:07.262Z,182.00
2023-03-06T03:36:40.138Z,182.00
2023-03-06T03:37:12.409Z,182.00
2023-03-06T03:37:44.685Z,182.33
2023-03-06T03:38:17.037Z,182.33
2023-03-06T03:38:49.306Z,183.33
2023-03-06T03:39:21.643Z,183.00
2023-03-06T03:39:53.942Z,185.67
2023-03-06T03:40:26.301Z,201.67
2023-03-06T03:40:58.584Z,215.00
2023-03-06T03:41:31.184Z,227.00
2023-03-06T03:42:03.566Z,232.00
2023-03-06T03:42:35.862Z,224.00
2023-03-06T03:43:08.121Z,211.67
2023-03-06T03:43:40.442Z,207.00
2023-03-06T03:44:12.742Z,198.33
2023-03-06T03:44:45.138Z,187.00
2023-03-06T03:45:17.475Z,183.33
2023-03-06T03:45:49.830Z,182.33
2023-03-06T03:46:22.118Z,183.00
2023-03-06T03:46:54.415Z,183.67
2023-03-06T03:47:26.688Z,185.00
2023-03-06T03:47:58.974Z,187.33
2023-03-06T03:48:31.373Z,190.00
2023-03-06T03:49:04.223Z,194.67
2023-03-06T03:49:36.536Z,202.33
2023-03-06T03:50:11.479Z,207.00
2023-03-06T03:50:43.816Z,210.33
2023-03-06T03:51:16.659Z,211.67
2023-03-06T03:51:48.996Z,215.33
2023-03-06T03:52:21.315Z,220.33
2023-03-06T03:52:53.568Z,217.00
2023-03-06T03:53:25.860Z,216.33
2023-03-06T03:53:58.194Z,215.33
2023-03-06T03:54:30.610Z,213.67
2023-03-06T03:55:03.946Z,213.00
2023-03-06T03:55:36.686Z,214.67
2023-03-06T03:56:09.050Z,217.33
2023-03-06T03:56:41.867Z,218.00
2023-03-06T03:57:14.155Z,218.00
2023-03-06T03:57:46.441Z,217.00
2023-03-06T03:58:18.717Z,217.00
2023-03-06T03:58:51.859Z,217.33
2023-03-06T03:59:24.504Z,218.33
2023-03-06T03:59:56.898Z,221.33
2023-03-06T04:00:29.245Z,232.00
2023-03-06T04:01:02.021Z,255.00
2023-03-06T04:01:34.430Z,261.67
2023-03-06T04:02:06.801Z,254.67
2023-03-06T04:02:39.127Z,248.33
2023-03-06T04:03:11.435Z,249.00
2023-03-06T04:03:43.916Z,243.00
2023-03-06T04:04:16.490Z,256.67
2023-03-06T04:04:49.014Z,279.33
2023-03-06T04:05:21.295Z,280.00
2023-03-06T04:05:58.005Z,275.33
2023-03-06T04:06:30.647Z,278.00
2023-03-06T04:07:04.434Z,284.67
2023-03-06T04:07:36.982Z,285.67
2023-03-06T04:08:09.817Z,275.67
2023-03-06T04:08:42.196Z,274.33
2023-03-06T04:09:14.504Z,279.00
2023-03-06T04:09:47.381Z,277.00
2023-03-06T04:10:19.681Z,270.67
2023-03-06T04:10:52.846Z,266.33
2023-03-06T04:11:25.365Z,266.00
2023-03-06T04:11:57.635Z,266.33
2023-03-06T04:12:29.919Z,266.67
2023-03-06T04:13:02.260Z,268.00
2023-03-06T04:13:34.549Z,268.67
2023-03-06T04:14:08.315Z,270.00
2023-03-06T04:14:40.558Z,271.00
2023-03-06T04:15:12.860Z,272.33
2023-03-06T04:15:45.382Z,275.67
2023-03-06T04:16:17.741Z,280.00
2023-03-06T04:16:50.030Z,278.33
2023-03-06T04:17:22.315Z,277.67
2023-03-06T04:17:54.609Z,276.67
2023-03-06T04:18:27.248Z,276.33
2023-03-06T04:18:59.524Z,275.33
2023-03-06T04:19:32.687Z,276.33
2023-03-06T04:20:05.418Z,278.00
2023-03-06T04:20:37.730Z,280.33
2023-03-06T04:21:10.033Z,284.33
2023-03-06T04:21:42.349Z,286.00
2023-03-06T04:22:14.668Z,290.00
2023-03-06T04:23:07.286Z,291.33
2023-03-06T04:23:59.781Z,288.67
2023-03-06T04:24:32.100Z,287.67
2023-03-06T04:25:04.702Z,288.00
2023-03-06T04:25:37.019Z,287.33
2023-03-06T04:26:09.697Z,287.33
2023-03-06T04:26:42.084Z,288.00
2023-03-06T04:27:14.437Z,288.67
2023-03-06T04:27:46.702Z,290.33
2023-03-06T04:28:19.077Z,294.33
2023-03-06T04:28:51.384Z,303.33
2023-03-06T04:29:23.860Z,314.67
2023-03-06T04:29:56.504Z,327.33
2023-03-06T04:30:28.806Z,334.67
2023-03-06T04:31:01.100Z,338.67
2023-03-06T04:31:33.844Z,340.67
2023-03-06T04:32:06.556Z,342.33
2023-03-06T04:32:38.961Z,336.67
2023-03-06T04:33:11.725Z,332.33
2023-03-06T04:33:44.043Z,331.33
2023-03-06T04:34:16.323Z,330.33
2023-03-06T04:34:48.606Z,331.67
2023-03-06T04:35:20.894Z,335.67
2023-03-06T04:35:53.621Z,341.00
2023-03-06T04:36:25.925Z,344.00
2023-03-06T04:36:58.189Z,347.33
2023-03-06T04:37:31.072Z,350.67
2023-03-06T04:38:04.666Z,351.00
2023-03-06T04:38:36.955Z,352.33
2023-03-06T04:39:09.365Z,352.67
2023-03-06T04:39:41.698Z,356.00
2023-03-06T04:40:23.765Z,357.67
2023-03-06T04:40:56.229Z,355.67
2023-03-06T04:41:28.793Z,365.67
2023-03-06T04:42:01.242Z,378.00
2023-03-06T04:42:33.591Z,380.00
2023-03-06T04:43:05.904Z,381.33
2023-03-06T04:43:39.615Z,384.67
2023-03-06T04:44:11.941Z,384.67
2023-03-06T04:44:44.911Z,383.33
2023-03-06T04:45:17.277Z,381.00
2023-03-06T04:45:49.629Z,376.67
2023-03-06T04:46:22.001Z,372.33
2023-03-06T04:46:54.309Z,370.33
2023-03-06T04:47:26.630Z,370.67
2023-03-06T04:47:59.750Z,370.33
2023-03-06T04:48:32.249Z,374.33
2023-03-06T04:49:04.621Z,374.00
2023-03-06T04:49:37.547Z,377.67
2023-03-06T04:50:10.577Z,383.33
2023-03-06T04:50:42.883Z,383.00
2023-03-06T04:51:15.186Z,379.00
2023-03-06T04:51:47.540Z,378.00
2023-03-06T04:52:19.837Z,379.00
2023-03-06T04:52:52.553Z,378.33
2023-03-06T04:53:24.844Z,378.00
2023-03-06T04:53:57.328Z,381.33
2023-03-06T04:54:30.098Z,382.33
2023-03-06T04:55:08.512Z,382.00
2023-03-06T04:55:40.815Z,383.67
2023-03-06T04:56:13.276Z,386.67
2023-03-06T04:56:45.572Z,385.33
2023-03-06T04:57:18.143Z,383.67
2023-03-06T04:57:50.484Z,383.00
2023-03-06T04:58:22.802Z,382.67
2023-03-06T04:58:55.520Z,385.00
2023-03-06T04:59:27.879Z,387.00
2023-03-06T05:00:00.198Z,386.33
2023-03-06T05:00:32.581Z,386.00
2023-03-06T05:01:05.056Z,385.00
2023-03-06T05:01:37.416Z,385.00
2023-03-06T05:02:09.821Z,385.67
2023-03-06T05:02:44.078Z,386.00
2023-03-06T05:03:16.536Z,387.00
2023-03-06T05:03:49.802Z,387.00
2023-03-06T05:04:22.090Z,387.67
2023-03-06T05:04:54.404Z,388.00
2023-03-06T05:05:27.592Z,388.33
2023-03-06T05:05:59.903Z,396.33
2023-03-06T05:06:32.620Z,413.33
2023-03-06T05:07:05.009Z,421.00
2023-03-06T05:07:37.831Z,420.33
2023-03-06T05:08:15.344Z,419.00
2023-03-06T05:08:48.018Z,415.00
2023-03-06T05:09:20.363Z,411.67
2023-03-06T05:09:52.680Z,409.33
2023-03-06T05:10:25.181Z,409.33
2023-03-06T05:11:00.510Z,415.33
2023-03-06T05:11:32.798Z,425.00
2023-03-06T05:12:05.155Z,430.00
2023-03-06T05:12:37.884Z,432.00
2023-03-06T05:13:10.610Z,430.00
2023-03-06T05:13:43.001Z,429.00
2023-03-06T05:14:15.322Z,429.67
2023-03-06T05:14:48.150Z,428.33
2023-03-06T05:15:21.039Z,426.33
2023-03-06T05:15:53.971Z,427.33
2023-03-06T05:16:26.987Z,433.33
2023-03-06T05:17:00.375Z,433.33
2023-03-06T05:17:32.885Z,429.33
2023-03-06T05:18:05.183Z,426.67
2023-03-06T05:18:37.607Z,425.00
2023-03-06T05:19:09.902Z,421.67
2023-03-06T05:19:42.160Z,418.33
2023-03-06T05:20:16.752Z,415.33
2023-03-06T05:20:49.063Z,413.00
2023-03-06T05:21:21.352Z,410.00
2023-03-06T05:21:53.623Z,408.33
2023-03-06T05:22:26.024Z,406.33
2023-03-06T05:22:58.308Z,404.00
2023-03-06T05:23:32.479Z,402.33
2023-03-06T05:24:04.909Z,403.67
2023-03-06T05:24:37.452Z,404.00
2023-03-06T05:25:10.771Z,404.00
2023-03-06T05:25:43.073Z,403.67
2023-03-06T05:26:16.307Z,402.33
2023-03-06T05:26:48.613Z,401.00
2023-03-06T05:27:20.990Z,401.33
2023-03-06T05:27:53.259Z,406.33
2023-03-06T05:28:26.648Z,417.00
2023-03-06T05:28:58.957Z,421.00
2023-03-06T05:29:31.253Z,419.33
2023-03-06T05:30:04.116Z,416.33
2023-03-06T05:30:36.423Z,406.67
2023-03-06T05:31:08.959Z,398.00
2023-03-06T05:31:41.298Z,390.67
2023-03-06T05:32:13.807Z,384.00
2023-03-06T05:32:46.297Z,383.67
2023-03-06T05:33:18.676Z,385.67
2023-03-06T05:33:50.966Z,388.67
2023-03-06T05:34:23.251Z,390.00
2023-03-06T05:34:55.775Z,390.00
2023-03-06T05:35:28.145Z,390.00
2023-03-06T05:36:01.065Z,390.00
2023-03-06T05:36:33.362Z,391.00
2023-03-06T05:37:05.754Z,391.67
2023-03-06T05:37:38.115Z,392.67
2023-03-06T05:38:10.461Z,395.00
2023-03-06T05:38:42.797Z,396.67
2023-03-06T05:39:15.065Z,397.67
2023-03-06T05:39:47.346Z,398.00
2023-03-06T05:40:19.731Z,398.33
2023-03-06T05:40:52.045Z,399.00
2023-03-06T05:41:24.310Z,399.00
2023-03-06T05:41:56.667Z,399.00
2023-03-06T05:42:31.149Z,399.00
2023-03-06T05:43:03.465Z,399.00
2023-03-06T05:43:35.756Z,399.33
2023-03-06T05:44:09.081Z,400.67
2023-03-06T05:44:41.844Z,402.00
2023-03-06T05:45:14.250Z,403.33
2023-03-06T05:45:46.637Z,406.00
2023-03-06T05:46:18.973Z,408.33
2023-03-06T05:46:51.329Z,410.00
2023-03-06T05:47:23.583Z,412.33
2023-03-06T05:47:55.859Z,414.00
2023-03-06T05:48:28.197Z,414.33
2023-03-06T05:49:00.549Z,416.33
2023-03-06T05:49:35.086Z,416.67
2023-03-06T05:50:08.400Z,417.00
2023-03-06T05:50:40.707Z,417.33
2023-03-06T05:51:13.003Z,419.67
2023-03-06T05:51:45.277Z,420.33
2023-03-06T05:52:17.837Z,421.67
2023-03-06T05:52:50.270Z,423.00
2023-03-06T05:53:22.582Z,424.00
2023-03-06T05:53:54.861Z,424.00
2023-03-06T05:54:27.163Z,423.33
2023-03-06T05:54:59.459Z,423.00
2023-03-06T05:55:31.809Z,422.67
2023-03-06T05:56:11.577Z,422.00
2023-03-06T05:56:43.862Z,421.67
2023-03-06T05:57:16.413Z,421.00
2023-03-06T05:57:48.743Z,421.00
2023-03-06T05:58:20.996Z,420.00
2023-03-06T05:58:53.280Z,419.00
2023-03-06T05:59:28.489Z,413.00
2023-03-06T06:00:00.893Z,406.00
2023-03-06T06:00:33.207Z,404.00
2023-03-06T06:01:20.053Z,403.67
2023-03-06T06:01:52.392Z,401.33
2023-03-06T06:02:24.732Z,395.67
2023-03-06T06:03:00.504Z,390.00
2023-03-06T06:03:32.799Z,387.00
2023-03-06T06:04:05.358Z,384.67
2023-03-06T06:04:37.773Z,379.00
2023-03-06T06:05:12.563Z,378.33
2023-03-06T06:05:45.331Z,378.00
2023-03-06T06:06:18.157Z,376.33
2023-03-06T06:06:56.112Z,378.00
2023-03-06T06:07:28.445Z,380.00
2023-03-06T06:08:01.080Z,381.00
2023-03-06T06:08:33.663Z,381.67
2023-03-06T06:09:06.043Z,382.67
2023-03-06T06:09:38.438Z,384.00
2023-03-06T06:10:11.662Z,385.00
2023-03-06T06:10:44.027Z,399.67
2023-03-06T06:11:18.297Z,421.67
2023-03-06T06:11:54.706Z,427.67
2023-03-06T06:12:27.495Z,427.00
2023-03-06T06:12:59.797Z,417.33
2023-03-06T06:13:32.568Z,414.67
2023-03-06T06:14:04.845Z,413.33
2023-03-06T06:14:37.386Z,411.00
2023-03-06T06:15:10.015Z,406.33
2023-03-06T06:15:42.325Z,401.67
2023-03-06T06:16:16.688Z,392.00
2023-03-06T06:16:49.526Z,381.00
2023-03-06T06:17:21.799Z,371.33
2023-03-06T06:17:54.283Z,365.00
2023-03-06T06:18:26.695Z,365.33
2023-03-06T06:18:59.121Z,370.67
2023-03-06T06:19:31.672Z,375.00
2023-03-06T06:20:04.676Z,375.00
2023-03-06T06:20:37.622Z,374.00
2023-03-06T06:21:12.015Z,376.67
2023-03-06T06:21:52.534Z,380.33
2023-03-06T06:22:25.003Z,389.00
2023-03-06T06:22:57.803Z,396.33
2023-03-06T06:23:30.105Z,399.67
2023-03-06T06:24:02.475Z,398.67
2023-03-06T06:24:34.908Z,394.67
2023-03-06T06:25:07.783Z,379.67
2023-03-06T06:25:40.151Z,365.67
2023-03-06T06:26:12.460Z,366.33
2023-03-06T06:26:45.359Z,369.67
2023-03-06T06:27:17.647Z,371.33
2023-03-06T06:27:49.996Z,372.33
2023-03-06T06:28:22.324Z,373.33
2023-03-06T06:28:54.759Z,374.00
2023-03-06T06:29:28.301Z,374.00
2023-03-06T06:30:00.647Z,373.67
2023-03-06T06:30:33.941Z,372.00
2023-03-06T06:31:12.254Z,362.00
2023-03-06T06:31:45.103Z,349.33
2023-03-06T06:32:17.415Z,346.00
2023-03-06T06:32:49.941Z,347.00
2023-03-06T06:33:22.322Z,345.67
2023-03-06T06:33:54.643Z,349.67
2023-03-06T06:34:28.232Z,355.33
2023-03-06T06:35:00.725Z,353.67
2023-03-06T06:35:36.202Z,351.00
2023-03-06T06:36:19.581Z,353.00
2023-03-06T06:36:53.531Z,353.33
2023-03-06T06:37:26.205Z,353.33
2023-03-06T06:37:58.499Z,353.00
2023-03-06T06:38:30.873Z,354.00
2023-03-06T06:39:08.077Z,355.33
2023-03-06T06:39:40.618Z,362.67
2023-03-06T06:40:13.274Z,375.00
2023-03-06T06:41:04.210Z,386.67
2023-03-06T06:41:54.920Z,399.67
2023-03-06T06:42:35.830Z,402.00
2023-03-06T06:43:10.734Z,400.00
2023-03-06T06:43:43.066Z,397.33
2023-03-06T06:44:16.291Z,399.00
2023-03-06T06:44:48.663Z,435.33
2023-03-06T06:45:23.535Z,455.00
2023-03-06T06:46:31.514Z,471.67
2023-03-06T06:47:21.999Z,480.00
2023-03-06T06:47:52.090Z,457.33
2023-03-06T06:48:24.818Z,446.33
2023-03-06T06:49:06.370Z,464.00
2023-03-06T06:49:39.801Z,481.33
2023-03-06T06:50:13.708Z,490.67
2023-03-06T06:50:46.092Z,487.67
2023-03-06T06:51:18.622Z,483.00
2023-03-06T06:51:50.914Z,487.33
2023-03-06T06:52:24.709Z,485.00
2023-03-06T06:52:57.131Z,479.00
2023-03-06T06:53:29.634Z,470.33
2023-03-06T06:54:02.092Z,466.00
2023-03-06T06:54:34.824Z,462.67
2023-03-06T06:55:08.283Z,458.33
2023-03-06T06:55:40.656Z,454.67
2023-03-06T06:56:13.477Z,438.67
2023-03-06T06:56:45.767Z,418.33
2023-03-06T06:57:18.097Z,410.00
2023-03-06T06:57:50.403Z,403.67
2023-03-06T06:58:22.704Z,400.00